Morrilton, Arkansas
Current Conditions -  °F | °C
As of 12:53 PM on Tuesday 21 Oct 2014 (Local Time) from KRUE Reporting Station
Clear Clear  
Wind Chill: 73°   Ceiling: Unl
Heat Index: 73°   Visibility: 10mi
Dew Point: 56°   Wind: 0mph
Humidity: 55%   Direction: NA
Pressure: 30.11"   Gusts: NA
Location:  35.15°N, 92.74°W
Report Text: KRUE 211753Z AUTO 00000KT 10SM CLR 23/13 A3011 RMK AO2 SLP191 T02280133 10228 20094 58010
Loading
Personal Weather Stations






























Interactive Weather Map New forecast layout! Learn more

10-Day Weather Forecast

Advertisements
Track Severe Weather on mobile